Aérodrome :
LOGIN :

S'inscrire | Disclaimer

   EN    FR    IT 

 










Légende :    VFR   VFR Marginal   IFR   IFR Intensif   IFR Très Intensif
Visi : 
Plafond : 
>= 8 km
>= 3000ft
5 à 8 km
1000 à 3000 ft
1500m à 5 km
500 à 1000 ft
800 à 1500m
200 à 500 ft
< 800m
< 200 ft
Symboles :   Orages  Brouillard  Fortes neiges  Fortes précipitations  Vent > 20 kt
SIGMETs :   Divers  Orages  Givrage  Turbulence  Onde Orograph.  Cendres Volcan.







- Altitude de l'aérodrome : -11 ft
- Code IATA : AMS


EHAM - Amsterdam Schiphol

DERNIER METAR :
  • 191355Z 30013KT 9999 VCSH FEW028TCU FEW046 08/04 Q1018 NOSIG

METARs EXPIRÉS :
  • 191325Z 30017KT 9999 -SHRA FEW028TCU FEW035 09/04 Q1018 NOSIG
  • 191255Z 31016KT 280V340 9999 -SHRA FEW028TCU FEW035 09/04 Q1018 NOSIG
  • 191225Z 31017KT 9999 VCSH FEW023TCU FEW045 10/05 Q1018 NOSIG
  • 191155Z 31017KT 9999 -SHRA FEW028CB FEW048 09/04 Q1018 TEMPO 7000 -SHRA
  • 191125Z 30016G26KT 260V330 9999 FEW028 09/04 Q1017 NOSIG

TAF TAF EHAM
Valide du 19 à 12h jusqu'au 20 à 18h UTC


191053Z 1912/2018 31017KT 9999 SCT025
PROB40
TEMPO 1912/1916 32018G28KT 7000 -SHRA SCT022CB BKN035
BECMG 1914/1917 30010KT
BECMG 2001/2004 24007KT
BECMG 2005/2008 19012KT 7000 -RA BKN018
BECMG 2009/2012 BKN012
TEMPO 2011/2018 4000 RADZ BKN008
BECMG 2014/2017 27015KT
Pas de NOTAMs connus pour ce terrain.



MET'MAP, la Météo Aéronautique d'un coup d'oeil ! - Copyright ORBIFLY Décembre 2007 - Disclaimer

ORBIFLY MET'MAP TEAM :

Programmation & Développement : Alexandra Zaïnal
Conception & Développement : Baudouin d'Aumeries
Co-Programmation & Développement : Marc-Olivier Méhu
Soutien technique & logistique : Manuel Goepfert

Contact : metmap@orbifly.com




SOURCES & CREDITS :

   NOAA